createdAt,value
2023-01-12T00:02:44.584Z,9.20
2023-01-12T00:05:46.630Z,9.30
2023-01-12T00:08:49.762Z,9.20
2023-01-12T00:11:51.864Z,9.20
2023-01-12T00:14:54.001Z,9.20
2023-01-12T00:17:55.955Z,9.20
2023-01-12T00:20:57.927Z,9.20
2023-01-12T00:23:59.877Z,9.20
2023-01-12T00:27:06.158Z,9.20
2023-01-12T00:30:08.855Z,9.20
2023-01-12T00:33:10.690Z,9.20
2023-01-12T00:36:14.048Z,9.30
2023-01-12T00:39:16.125Z,9.20
2023-01-12T00:42:36.531Z,9.20
2023-01-12T00:45:38.420Z,9.20
2023-01-12T00:48:40.331Z,9.20
2023-01-12T00:51:42.152Z,9.20
2023-01-12T00:54:43.976Z,9.20
2023-01-12T00:57:45.964Z,9.20
2023-01-12T01:00:48.008Z,9.20
2023-01-12T01:03:50.024Z,9.20
2023-01-12T01:06:52.126Z,9.20
2023-01-12T01:09:53.934Z,9.30
2023-01-12T01:12:55.979Z,9.30
2023-01-12T01:16:01.792Z,9.30
2023-01-12T01:19:05.920Z,9.30
2023-01-12T01:22:07.888Z,9.30
2023-01-12T01:25:09.939Z,9.40
2023-01-12T01:28:11.957Z,9.40
2023-01-12T01:31:17.017Z,9.50
2023-01-12T01:34:18.984Z,9.50
2023-01-12T01:37:21.850Z,9.50
2023-01-12T01:40:24.137Z,9.50
2023-01-12T01:43:27.959Z,9.60
2023-01-12T01:46:38.688Z,9.60
2023-01-12T01:49:46.166Z,9.60
2023-01-12T01:52:56.287Z,9.60
2023-01-12T01:56:04.616Z,9.60
2023-01-12T01:59:22.420Z,9.60
2023-01-12T02:02:26.255Z,9.60
2023-01-12T02:05:29.014Z,9.60
2023-01-12T02:08:49.433Z,9.60
2023-01-12T02:12:10.296Z,9.60
2023-01-12T02:15:30.853Z,9.60
2023-01-12T02:18:32.744Z,9.50
2023-01-12T02:21:49.658Z,9.50
2023-01-12T02:25:29.343Z,9.50
2023-01-12T02:28:43.573Z,9.50
2023-01-12T02:32:06.457Z,9.50
2023-01-12T02:35:48.327Z,9.50
2023-01-12T02:39:19.309Z,9.50
2023-01-12T02:42:44.028Z,9.40
2023-01-12T02:45:54.774Z,9.40
2023-01-12T02:49:04.959Z,9.40
2023-01-12T02:52:13.190Z,9.50
2023-01-12T02:55:17.088Z,9.40
2023-01-12T02:58:22.521Z,9.40
2023-01-12T03:01:27.239Z,9.40
2023-01-12T03:04:32.170Z,9.40
2023-01-12T03:07:41.353Z,9.40
2023-01-12T03:10:55.139Z,9.40
2023-01-12T03:14:01.978Z,9.40
2023-01-12T03:17:08.210Z,9.40
2023-01-12T03:20:32.054Z,9.40
2023-01-12T03:23:44.757Z,9.40
2023-01-12T03:26:50.701Z,9.40
2023-01-12T03:30:04.724Z,9.40
2023-01-12T03:33:07.712Z,9.40
2023-01-12T03:36:28.714Z,9.40
2023-01-12T03:39:33.640Z,9.40
2023-01-12T03:43:04.535Z,9.40
2023-01-12T03:46:31.611Z,9.40
2023-01-12T03:49:43.400Z,9.40
2023-01-12T03:52:46.245Z,9.40
2023-01-12T03:55:50.218Z,9.40
2023-01-12T03:58:52.382Z,9.40
2023-01-12T04:01:54.366Z,9.40
2023-01-12T04:04:56.552Z,9.40
2023-01-12T04:07:58.521Z,9.40
2023-01-12T04:11:20.706Z,9.40
2023-01-12T04:14:22.533Z,9.40
2023-01-12T04:17:25.381Z,9.40
2023-01-12T04:20:27.169Z,9.40
2023-01-12T04:23:29.200Z,9.40
2023-01-12T04:26:31.064Z,9.40
2023-01-12T04:29:32.943Z,9.40
2023-01-12T04:32:34.696Z,9.40
2023-01-12T04:35:36.724Z,9.30
2023-01-12T04:38:39.927Z,9.30
2023-01-12T04:41:42.093Z,9.40
2023-01-12T04:44:44.077Z,9.40
2023-01-12T04:47:45.967Z,9.30
2023-01-12T04:50:49.867Z,9.30
2023-01-12T04:53:51.863Z,9.40
2023-01-12T04:56:53.646Z,9.30
2023-01-12T04:59:55.485Z,9.30
2023-01-12T05:03:00.989Z,9.40
2023-01-12T05:06:03.967Z,9.30
2023-01-12T05:09:24.424Z,9.30
2023-01-12T05:12:26.814Z,9.30
2023-01-12T05:15:28.616Z,9.30
2023-01-12T05:18:30.890Z,9.30
2023-01-12T05:21:32.830Z,9.30
2023-01-12T05:24:35.000Z,9.40
2023-01-12T05:27:36.791Z,9.30
2023-01-12T05:30:38.684Z,9.30
2023-01-12T05:33:42.095Z,9.30
2023-01-12T05:36:43.823Z,9.30
2023-01-12T05:39:45.630Z,9.30
2023-01-12T05:43:09.460Z,9.30
2023-01-12T05:46:11.288Z,9.30
2023-01-12T05:49:13.164Z,9.30
2023-01-12T05:52:15.073Z,9.30
2023-01-12T05:55:16.995Z,9.30
2023-01-12T05:58:18.801Z,9.40
2023-01-12T06:01:21.787Z,9.40
2023-01-12T06:04:23.654Z,9.40
2023-01-12T06:07:25.696Z,9.40
2023-01-12T06:10:27.804Z,9.40
2023-01-12T06:13:48.204Z,9.40
2023-01-12T06:16:50.217Z,9.40
2023-01-12T06:19:53.350Z,9.40
2023-01-12T06:22:55.557Z,9.40
2023-01-12T06:26:01.588Z,9.40
2023-01-12T06:29:05.524Z,9.50
2023-01-12T06:32:07.540Z,9.50
2023-01-12T06:35:18.532Z,9.50
2023-01-12T06:38:23.248Z,9.50
2023-01-12T06:41:43.573Z,9.50
2023-01-12T06:44:46.062Z,9.60
2023-01-12T06:47:52.106Z,9.60
2023-01-12T06:51:02.273Z,9.60
2023-01-12T06:54:04.304Z,9.60
2023-01-12T06:57:06.148Z,9.60
2023-01-12T07:00:14.015Z,9.60
2023-01-12T07:03:18.062Z,9.60
2023-01-12T07:06:20.234Z,9.60
2023-01-12T07:09:22.115Z,9.60
2023-01-12T07:12:24.190Z,9.60
2023-01-12T07:15:26.207Z,9.70
2023-01-12T07:18:30.090Z,9.60
2023-01-12T07:21:32.055Z,9.70
2023-01-12T07:24:34.516Z,9.70
2023-01-12T07:27:36.319Z,9.70
2023-01-12T07:30:38.104Z,9.70
2023-01-12T07:33:40.123Z,9.70
2023-01-12T07:36:42.703Z,9.70
2023-01-12T07:39:44.714Z,9.70
2023-01-12T07:42:46.472Z,9.70
2023-01-12T07:45:48.379Z,9.70
2023-01-12T07:48:50.327Z,9.70
2023-01-12T07:51:56.258Z,9.70
2023-01-12T07:54:58.362Z,9.70
2023-01-12T07:58:07.372Z,9.80
2023-01-12T08:01:09.570Z,9.80
2023-01-12T08:04:11.608Z,9.80
2023-01-12T08:07:15.071Z,9.80
2023-01-12T08:10:17.577Z,9.80
2023-01-12T08:13:22.876Z,9.80
2023-01-12T08:16:42.680Z,9.80
2023-01-12T08:19:51.273Z,9.80
2023-01-12T08:22:57.995Z,9.80
2023-01-12T08:26:04.333Z,9.80
2023-01-12T08:29:17.792Z,9.90
2023-01-12T08:32:19.947Z,9.90
2023-01-12T08:35:24.166Z,9.90
2023-01-12T08:38:26.172Z,9.90
2023-01-12T08:41:34.211Z,9.90
2023-01-12T08:44:36.406Z,10.00
2023-01-12T08:47:40.791Z,10.00
2023-01-12T08:50:42.641Z,10.00
2023-01-12T08:53:44.446Z,10.00
2023-01-12T08:56:47.161Z,10.00
2023-01-12T08:59:49.218Z,10.00
2023-01-12T09:02:51.013Z,10.00
2023-01-12T09:05:52.868Z,10.10
2023-01-12T09:08:57.836Z,10.10
2023-01-12T09:12:00.197Z,10.10
2023-01-12T09:15:01.959Z,10.20
2023-01-12T09:18:04.285Z,10.20
2023-01-12T09:21:10.834Z,10.20
2023-01-12T09:24:14.766Z,10.20
2023-01-12T09:27:16.726Z,10.20
2023-01-12T09:30:18.649Z,10.20
2023-01-12T09:33:24.019Z,10.30
2023-01-12T09:36:31.386Z,10.30
2023-01-12T09:39:33.310Z,10.30
2023-01-12T09:42:54.031Z,10.40
2023-01-12T09:46:14.605Z,10.40
2023-01-12T09:49:18.467Z,10.40
2023-01-12T09:52:25.771Z,10.40
2023-01-12T09:55:55.072Z,10.50
2023-01-12T09:59:44.588Z,10.50
2023-01-12T10:02:54.621Z,10.50
2023-01-12T10:06:00.639Z,10.50
2023-01-12T10:09:06.734Z,10.50
2023-01-12T10:12:21.887Z,10.50
2023-01-12T10:15:35.561Z,10.40
2023-01-12T10:18:47.476Z,10.40
2023-01-12T10:21:52.476Z,10.40
2023-01-12T10:24:55.929Z,10.40
2023-01-12T10:27:58.831Z,10.40
2023-01-12T10:31:01.801Z,10.50
2023-01-12T10:34:09.290Z,10.50
2023-01-12T10:37:12.079Z,10.50
2023-01-12T10:40:40.468Z,10.50
2023-01-12T10:43:43.760Z,10.50
2023-01-12T10:47:08.431Z,10.60
2023-01-12T10:50:21.395Z,10.60
2023-01-12T10:53:28.274Z,10.70
2023-01-12T10:57:00.294Z,10.60
2023-01-12T11:00:05.803Z,10.70
2023-01-12T11:03:33.393Z,10.70
2023-01-12T11:06:35.269Z,10.70
2023-01-12T11:09:37.717Z,10.70
2023-01-12T11:12:42.192Z,10.70
2023-01-12T11:16:08.792Z,10.70
2023-01-12T11:19:17.887Z,10.70
2023-01-12T11:22:27.795Z,10.70
2023-01-12T11:25:50.617Z,10.80
2023-01-12T11:29:05.480Z,10.80
2023-01-12T11:32:14.624Z,10.80
2023-01-12T11:35:39.707Z,10.70
2023-01-12T11:38:46.496Z,10.70
2023-01-12T11:42:17.547Z,10.70
2023-01-12T11:45:19.430Z,10.70
2023-01-12T11:48:44.274Z,10.60
2023-01-12T11:51:50.478Z,10.70
2023-01-12T11:54:52.445Z,10.60
2023-01-12T11:58:39.859Z,10.60
2023-01-12T12:02:10.800Z,10.60
2023-01-12T12:05:25.001Z,10.60
2023-01-12T12:08:50.963Z,10.60
2023-01-12T12:12:03.908Z,10.60
2023-01-12T12:15:27.244Z,10.60
2023-01-12T12:18:34.807Z,10.60
2023-01-12T12:21:50.557Z,10.60
2023-01-12T12:25:31.558Z,10.60
2023-01-12T12:28:47.943Z,10.50
2023-01-12T12:32:27.280Z,10.50
2023-01-12T12:35:35.204Z,10.50
2023-01-12T12:39:05.150Z,10.50
2023-01-12T12:42:55.031Z,10.60
2023-01-12T12:46:01.385Z,10.60
2023-01-12T12:49:06.139Z,10.60
2023-01-12T12:52:11.964Z,10.60
2023-01-12T12:55:14.141Z,10.70
2023-01-12T12:58:23.307Z,10.70
2023-01-12T13:01:25.608Z,10.70
2023-01-12T13:04:42.834Z,10.70
2023-01-12T13:07:51.650Z,10.70
2023-01-12T13:10:58.794Z,10.70
2023-01-12T13:14:04.295Z,10.70
2023-01-12T13:17:21.342Z,10.80
2023-01-12T13:20:52.228Z,10.80
2023-01-12T13:24:14.820Z,10.80
2023-01-12T13:27:56.345Z,10.80
2023-01-12T13:31:00.341Z,10.80
2023-01-12T13:34:36.522Z,10.80
2023-01-12T13:37:57.708Z,10.80
2023-01-12T13:41:15.078Z,10.70
2023-01-12T13:44:33.628Z,10.70
2023-01-12T13:47:36.960Z,10.70
2023-01-12T13:50:46.543Z,10.70
2023-01-12T13:53:59.722Z,10.70
2023-01-12T13:57:10.607Z,10.70
2023-01-12T14:00:23.722Z,10.80
2023-01-12T14:03:47.161Z,10.70
2023-01-12T14:07:35.495Z,10.70
2023-01-12T14:11:06.090Z,10.80
2023-01-12T14:14:52.439Z,10.80
2023-01-12T14:18:24.443Z,10.80
2023-01-12T14:21:28.750Z,10.80
2023-01-12T14:24:31.096Z,10.80
2023-01-12T14:27:32.920Z,10.70
2023-01-12T14:30:36.510Z,10.80
2023-01-12T14:33:39.069Z,10.70
2023-01-12T14:36:45.991Z,10.80
2023-01-12T14:39:48.142Z,10.70
2023-01-12T14:43:08.972Z,10.80
2023-01-12T14:46:27.000Z,10.80
2023-01-12T14:49:31.539Z,10.80
2023-01-12T14:52:33.837Z,10.80
2023-01-12T14:55:40.628Z,10.80
2023-01-12T14:58:43.879Z,10.80
2023-01-12T15:01:46.769Z,10.80
2023-01-12T15:05:19.137Z,10.80
2023-01-12T15:08:28.025Z,10.80
2023-01-12T15:11:36.060Z,10.90
2023-01-12T15:14:37.948Z,10.80
2023-01-12T15:17:58.165Z,10.80
2023-01-12T15:21:19.734Z,10.80
2023-01-12T15:24:44.354Z,10.80
2023-01-12T15:27:46.163Z,10.80
2023-01-12T15:30:48.008Z,10.90
2023-01-12T15:33:50.024Z,10.90
2023-01-12T15:36:53.714Z,10.90
2023-01-12T15:39:56.765Z,10.90
2023-01-12T15:43:04.761Z,10.90
2023-01-12T15:46:06.795Z,10.90
2023-01-12T15:49:09.496Z,10.90
2023-01-12T15:52:15.754Z,10.90
2023-01-12T15:55:20.736Z,10.90
2023-01-12T15:58:23.920Z,10.90
2023-01-12T16:01:38.400Z,10.90
2023-01-12T16:04:43.282Z,10.90
2023-01-12T16:07:48.343Z,11.00
2023-01-12T16:11:09.393Z,11.00
2023-01-12T16:14:12.304Z,11.00
2023-01-12T16:17:14.231Z,11.00
2023-01-12T16:20:17.569Z,11.00
2023-01-12T16:23:19.259Z,11.10
2023-01-12T16:26:21.351Z,11.00
2023-01-12T16:29:23.930Z,11.00
2023-01-12T16:32:26.586Z,11.00
2023-01-12T16:35:28.365Z,11.00
2023-01-12T16:38:30.415Z,11.10
2023-01-12T16:41:32.412Z,11.10
2023-01-12T16:44:37.454Z,11.10
2023-01-12T16:47:39.431Z,11.00
2023-01-12T16:50:42.093Z,11.00
2023-01-12T16:53:45.148Z,11.00
2023-01-12T16:56:47.724Z,11.10
2023-01-12T16:59:50.930Z,11.00
2023-01-12T17:02:53.980Z,11.00
2023-01-12T17:05:55.823Z,11.00
2023-01-12T17:09:01.690Z,11.00
2023-01-12T17:12:04.399Z,11.00
2023-01-12T17:15:07.720Z,10.90
2023-01-12T17:18:09.760Z,10.90
2023-01-12T17:21:15.568Z,11.00
2023-01-12T17:24:19.722Z,10.90
2023-01-12T17:27:22.755Z,11.00
2023-01-12T17:30:24.966Z,10.90
2023-01-12T17:33:27.809Z,10.90
2023-01-12T17:36:30.851Z,10.90
2023-01-12T17:39:32.830Z,10.90
2023-01-12T17:42:53.122Z,10.80
2023-01-12T17:45:55.291Z,10.90
2023-01-12T17:49:05.820Z,10.90
2023-01-12T17:52:07.795Z,10.80
2023-01-12T17:55:10.068Z,10.80
2023-01-12T17:58:12.010Z,10.80
2023-01-12T18:01:17.690Z,10.80
2023-01-12T18:04:35.500Z,10.80
2023-01-12T18:10:38.269Z,10.80
2023-01-12T18:13:41.447Z,10.80
2023-01-12T18:16:43.606Z,10.80
2023-01-12T18:19:45.813Z,10.90
2023-01-12T18:22:50.776Z,10.80
2023-01-12T18:25:52.716Z,10.80
2023-01-12T18:28:56.165Z,10.80
2023-01-12T18:31:58.200Z,10.70
2023-01-12T18:35:00.780Z,10.80
2023-01-12T18:38:02.780Z,10.80
2023-01-12T18:41:23.525Z,10.70
2023-01-12T18:44:25.616Z,10.70
2023-01-12T18:47:46.042Z,10.80
2023-01-12T18:51:11.753Z,10.70
2023-01-12T18:54:13.623Z,10.70
2023-01-12T18:57:19.694Z,10.70
2023-01-12T19:00:23.793Z,10.70
2023-01-12T19:03:25.893Z,10.70
2023-01-12T19:06:43.716Z,10.70
2023-01-12T19:09:46.996Z,10.70
2023-01-12T19:12:49.381Z,10.80
2023-01-12T19:16:12.307Z,10.70
2023-01-12T19:19:14.236Z,10.80
2023-01-12T19:22:34.547Z,10.80
2023-01-12T19:25:57.972Z,10.80
2023-01-12T19:29:05.658Z,10.80
2023-01-12T19:32:07.742Z,10.90
2023-01-12T19:35:11.776Z,10.80
2023-01-12T19:38:14.892Z,10.80
2023-01-12T19:41:36.924Z,10.80
2023-01-12T19:44:39.118Z,10.80
2023-01-12T19:47:41.401Z,10.80
2023-01-12T19:50:49.606Z,10.90
2023-01-12T19:53:52.008Z,10.80
2023-01-12T19:56:54.050Z,10.80
2023-01-12T19:59:55.999Z,10.80
2023-01-12T20:02:58.527Z,10.80
2023-01-12T20:06:06.008Z,10.70
2023-01-12T20:09:12.428Z,10.70
2023-01-12T20:12:15.701Z,10.70
2023-01-12T20:15:20.578Z,10.70
2023-01-12T20:18:59.640Z,10.60
2023-01-12T20:22:02.313Z,10.70
2023-01-12T20:25:05.746Z,10.70
2023-01-12T20:28:07.901Z,10.70
2023-01-12T20:31:15.925Z,10.80
2023-01-12T20:34:19.753Z,10.80
2023-01-12T20:37:21.572Z,10.80
2023-01-12T20:40:23.608Z,10.80
2023-01-12T20:43:28.005Z,10.80
2023-01-12T20:46:30.105Z,10.80
2023-01-12T20:49:32.551Z,10.70
2023-01-12T20:52:38.278Z,10.70
2023-01-12T20:55:53.453Z,10.70
2023-01-12T20:58:56.704Z,10.80
2023-01-12T21:01:58.793Z,10.80
2023-01-12T21:05:00.865Z,10.80
2023-01-12T21:08:08.313Z,10.70
2023-01-12T21:11:12.573Z,10.70
2023-01-12T21:14:15.389Z,10.80
2023-01-12T21:17:18.333Z,10.80
2023-01-12T21:20:20.323Z,10.80
2023-01-12T21:23:23.996Z,10.80
2023-01-12T21:26:26.294Z,10.80
2023-01-12T21:29:28.239Z,10.70
2023-01-12T21:32:30.155Z,10.70
2023-01-12T21:35:32.201Z,10.70
2023-01-12T21:38:34.550Z,10.80
2023-01-12T21:41:56.361Z,10.80
2023-01-12T21:44:58.155Z,10.70
2023-01-12T21:47:59.961Z,10.70
2023-01-12T21:51:06.571Z,10.70
2023-01-12T21:54:08.336Z,10.70
2023-01-12T21:57:10.154Z,10.70
2023-01-12T22:00:12.706Z,10.80
2023-01-12T22:03:14.895Z,10.80
2023-01-12T22:06:17.439Z,10.80
2023-01-12T22:09:20.806Z,10.80
2023-01-12T22:12:22.573Z,10.70
2023-01-12T22:15:26.182Z,10.70
2023-01-12T22:18:27.998Z,10.80
2023-01-12T22:21:29.994Z,10.80
2023-01-12T22:24:32.014Z,10.70
2023-01-12T22:27:37.233Z,10.70
2023-01-12T22:30:39.108Z,10.70
2023-01-12T22:33:45.429Z,10.70
2023-01-12T22:36:48.343Z,10.70
2023-01-12T22:39:50.450Z,10.70
2023-01-12T22:43:10.802Z,10.70
2023-01-12T22:46:13.910Z,10.70
2023-01-12T22:49:15.751Z,10.70
2023-01-12T22:52:17.524Z,10.70
2023-01-12T22:55:23.255Z,10.70
2023-01-12T22:58:25.277Z,10.80
2023-01-12T23:01:27.180Z,10.80
2023-01-12T23:04:28.961Z,10.70
2023-01-12T23:07:31.039Z,10.70
2023-01-12T23:10:33.662Z,10.70
2023-01-12T23:13:36.124Z,10.70
2023-01-12T23:16:38.080Z,10.70
2023-01-12T23:19:40.429Z,10.70
2023-01-12T23:22:42.491Z,10.60
2023-01-12T23:25:45.634Z,10.60
2023-01-12T23:28:53.748Z,10.60
2023-01-12T23:31:55.576Z,10.60
2023-01-12T23:34:57.539Z,10.60
2023-01-12T23:37:59.499Z,10.60
2023-01-12T23:41:10.686Z,10.60
2023-01-12T23:44:12.775Z,10.60
2023-01-12T23:47:19.735Z,10.60
2023-01-12T23:50:21.691Z,10.60
2023-01-12T23:53:24.672Z,10.60
2023-01-12T23:56:29.140Z,10.60
2023-01-12T23:59:31.061Z,10.60
